Time;durP1;ratioP1;P1;durP2;ratioP2;P2;SDS_P1;SDS_P2;PMS_P1;PMS_P2;Temp;Humidity;BMP_temperature;BMP_pressure;BME280_temperature;BME280_humidity;BME280_pressure;Samples;Min_cycle;Max_cycle;Signal;HPM_P1;HPM_P2
2021/11/20 00:01:57;;;;;;;20.63;14.05;;;;;;;;;;5089681;28;20020;-66
2021/11/20 00:04:23;;;;;;;20.00;13.88;;;;;;;;;;5090917;28;20028;-67
2021/11/20 00:06:51;;;;;;;20.73;14.43;;;;;;;;;;5090777;28;20099;-66
2021/11/20 00:09:18;;;;;;;21.65;14.57;;;;;;;;;;5090136;28;20448;-66
2021/11/20 00:11:45;;;;;;;21.25;13.85;;;;;;;;;;5091077;28;20024;-67
2021/11/20 00:14:11;;;;;;;19.27;11.90;;;;;;;;;;5090331;28;20027;-67
2021/11/20 00:16:39;;;;;;;20.73;12.80;;;;;;;;;;5088391;28;20023;-67
2021/11/20 00:19:05;;;;;;;19.02;13.18;;;;;;;;;;5092091;28;20079;-66
2021/11/20 00:21:36;;;;;;;17.65;12.38;;;;;;;;;;5091159;28;20346;-66
2021/11/20 00:24:06;;;;;;;20.08;13.85;;;;;;;;;;5092042;28;20102;-66
2021/11/20 00:26:34;;;;;;;;;;;;;;;;;;5093285;28;20465;-67
2021/11/20 00:31:29;;;;;;;19.40;13.48;;;;;;;;;;5092279;28;20036;-67
2021/11/20 00:33:55;;;;;;;20.75;14.05;;;;;;;;;;5091905;28;20024;-67
2021/11/20 00:36:22;;;;;;;20.20;13.80;;;;;;;;;;5092991;28;20024;-67
2021/11/20 00:38:49;;;;;;;20.33;13.02;;;;;;;;;;5092413;28;20473;-67
2021/11/20 00:41:17;;;;;;;19.00;12.82;;;;;;;;;;5091061;28;20039;-66
2021/11/20 00:43:44;;;;;;;19.85;12.95;;;;;;;;;;5092942;28;20024;-66
2021/11/20 00:46:11;;;;;;;19.40;13.23;;;;;;;;;;5090568;28;20274;-66
2021/11/20 00:48:37;;;;;;;21.20;14.10;;;;;;;;;;5092446;28;20406;-66
2021/11/20 00:51:09;;;;;;;19.95;13.85;;;;;;;;;;5090705;28;20062;-68
2021/11/20 00:53:35;;;;;;;19.27;13.32;;;;;;;;;;5092214;28;20484;-66
2021/11/20 00:56:02;;;;;;;20.90;14.50;;;;;;;;;;5091120;28;20036;-66
2021/11/20 00:58:28;;;;;;;20.08;12.90;;;;;;;;;;5092422;28;20095;-66
2021/11/20 01:00:56;;;;;;;21.00;13.73;;;;;;;;;;5090360;28;20833;-66
2021/11/20 01:03:22;;;;;;;20.15;14.05;;;;;;;;;;5091958;28;20032;-66
2021/11/20 01:05:49;;;;;;;20.52;13.50;;;;;;;;;;5091853;28;20028;-66
2021/11/20 01:08:16;;;;;;;19.65;13.65;;;;;;;;;;5091189;28;20028;-66
2021/11/20 01:10:44;;;;;;;21.48;14.05;;;;;;;;;;5091705;28;20032;-66
2021/11/20 01:13:11;;;;;;;22.65;14.55;;;;;;;;;;5086917;28;20480;-66
2021/11/20 01:15:41;;;;;;;23.00;14.77;;;;;;;;;;5091201;28;20031;-66
2021/11/20 01:18:08;;;;;;;21.25;14.82;;;;;;;;;;5091127;28;20020;-66
2021/11/20 01:20:34;;;;;;;22.48;14.18;;;;;;;;;;5091791;28;20036;-66
2021/11/20 01:23:01;;;;;;;22.98;14.50;;;;;;;;;;5090877;28;20024;-66
2021/11/20 01:25:27;;;;;;;24.67;15.13;;;;;;;;;;5091692;28;20081;-66
2021/11/20 01:27:56;;;;;;;22.60;14.88;;;;;;;;;;5091026;28;20043;-66
2021/11/20 01:30:22;;;;;;;22.05;13.73;;;;;;;;;;5091325;28;20046;-66
2021/11/20 01:32:49;;;;;;;18.55;13.35;;;;;;;;;;5091394;28;20016;-66
2021/11/20 01:35:16;;;;;;;20.55;14.05;;;;;;;;;;5090481;28;20020;-66
2021/11/20 01:37:43;;;;;;;22.02;14.23;;;;;;;;;;5091453;28;20043;-66
2021/11/20 01:40:14;;;;;;;21.08;13.63;;;;;;;;;;5090784;28;20541;-66
2021/11/20 01:42:40;;;;;;;20.10;12.32;;;;;;;;;;5091725;28;20066;-67
2021/11/20 01:45:06;;;;;;;20.02;13.45;;;;;;;;;;5089510;28;20017;-66
2021/11/20 01:47:32;;;;;;;18.83;12.77;;;;;;;;;;5091528;28;20027;-66
2021/11/20 01:50:03;;;;;;;17.55;12.32;;;;;;;;;;5090616;28;20032;-66
2021/11/20 01:52:43;;;;;;;20.33;13.05;;;;;;;;;;5090956;28;20493;-66
2021/11/20 01:55:09;;;;;;;21.42;13.95;;;;;;;;;;5090989;28;20047;-66
2021/11/20 01:57:38;;;;;;;21.23;13.70;;;;;;;;;;5091138;28;20499;-66
2021/11/20 02:00:17;;;;;;;18.48;12.45;;;;;;;;;;5090675;28;20036;-67
2021/11/20 02:03:02;;;;;;;18.42;11.25;;;;;;;;;;5093600;28;20027;-67
2021/11/20 02:05:32;;;;;;;17.05;11.65;;;;;;;;;;5080367;28;20089;-66
2021/11/20 02:08:27;;;;;;;17.20;11.20;;;;;;;;;;5093619;28;20085;-66
2021/11/20 02:11:03;;;;;;;17.77;12.32;;;;;;;;;;5077732;28;20044;-67
2021/11/20 02:13:31;;;;;;;16.17;11.43;;;;;;;;;;5095741;28;20130;-66
2021/11/20 02:16:18;;;;;;;18.50;12.55;;;;;;;;;;5100418;28;20020;-66
2021/11/20 02:18:46;;;;;;;16.83;11.85;;;;;;;;;;5098850;28;20016;-66
2021/11/20 02:21:44;;;;;;;16.75;11.27;;;;;;;;;;5094310;28;20067;-66
2021/11/20 02:24:10;;;;;;;17.90;12.10;;;;;;;;;;5046169;28;20374;-66
2021/11/20 02:26:36;;;;;;;17.55;12.13;;;;;;;;;;5095435;28;20028;-66
2021/11/20 02:29:05;;;;;;;18.70;12.05;;;;;;;;;;5094310;28;20036;-66
2021/11/20 02:31:34;;;;;;;17.70;12.02;;;;;;;;;;5094947;28;20025;-66
2021/11/20 02:34:00;;;;;;;18.65;12.38;;;;;;;;;;5094367;28;20158;-66
2021/11/20 02:36:26;;;;;;;16.90;11.65;;;;;;;;;;5094989;28;20453;-66
2021/11/20 02:39:01;;;;;;;19.95;13.23;;;;;;;;;;5095168;28;20140;-66
2021/11/20 02:41:28;;;;;;;17.58;12.23;;;;;;;;;;5094812;28;20031;-66
2021/11/20 02:44:01;;;;;;;19.10;12.52;;;;;;;;;;5094669;28;20030;-66
2021/11/20 02:46:30;;;;;;;20.67;13.95;;;;;;;;;;5093609;28;20047;-66
2021/11/20 02:48:59;;;;;;;22.95;15.38;;;;;;;;;;5094013;28;20097;-66
2021/11/20 02:51:27;;;;;;;28.33;16.47;;;;;;;;;;5094297;28;20036;-67
2021/11/20 02:54:01;;;;;;;24.33;16.20;;;;;;;;;;5094903;28;20089;-66
2021/11/20 02:56:29;;;;;;;25.85;15.88;;;;;;;;;;5094471;28;20035;-66
2021/11/20 02:58:59;;;;;;;23.88;15.32;;;;;;;;;;5094185;28;20107;-66
2021/11/20 03:01:25;;;;;;;;;;;;;;;;;;5094663;28;20032;-66
2021/11/20 03:03:51;;;;;;;25.80;15.70;;;;;;;;;;5094380;28;19958;-66
2021/11/20 03:06:17;;;;;;;24.42;15.35;;;;;;;;;;5093827;28;20034;-66
2021/11/20 03:08:43;;;;;;;22.33;15.07;;;;;;;;;;5094117;28;20063;-66
2021/11/20 03:11:13;;;;;;;25.17;15.45;;;;;;;;;;5093122;28;20028;-66
2021/11/20 03:13:40;;;;;;;21.38;13.88;;;;;;;;;;5094305;28;20023;-66
2021/11/20 03:16:07;;;;;;;23.33;14.77;;;;;;;;;;5093300;28;20047;-66
2021/11/20 03:18:33;;;;;;;26.63;16.10;;;;;;;;;;5094271;28;20020;-66
2021/11/20 03:21:00;;;;;;;28.88;16.73;;;;;;;;;;5093289;28;20043;-66
2021/11/20 03:23:28;;;;;;;26.38;15.88;;;;;;;;;;5093936;28;20028;-66
2021/11/20 03:25:54;;;;;;;20.10;12.80;;;;;;;;;;5094210;28;20036;-66
2021/11/20 03:28:20;;;;;;;22.30;13.65;;;;;;;;;;5091862;28;20039;-66
2021/11/20 03:30:47;;;;;;;18.15;12.27;;;;;;;;;;5093563;28;20051;-66
2021/11/20 03:33:13;;;;;;;17.17;12.15;;;;;;;;;;5092990;28;20032;-66
2021/11/20 03:35:40;;;;;;;17.50;11.88;;;;;;;;;;5093400;28;20032;-66
2021/11/20 03:38:07;;;;;;;18.65;11.98;;;;;;;;;;5092645;28;20032;-66
2021/11/20 03:40:34;;;;;;;18.00;11.82;;;;;;;;;;5093550;28;20035;-66
2021/11/20 03:43:00;;;;;;;17.52;11.57;;;;;;;;;;5092979;28;20162;-66
2021/11/20 03:45:28;;;;;;;15.32;10.60;;;;;;;;;;5092651;28;20058;-66
2021/11/20 03:47:54;;;;;;;22.88;12.45;;;;;;;;;;5093271;28;20048;-66
2021/11/20 03:50:22;;;;;;;19.02;12.55;;;;;;;;;;5092785;28;20032;-66
2021/11/20 03:52:48;;;;;;;21.83;14.23;;;;;;;;;;5093024;28;20074;-66
2021/11/20 03:55:17;;;;;;;23.15;15.15;;;;;;;;;;5092055;28;20024;-66
2021/11/20 03:57:43;;;;;;;20.08;13.32;;;;;;;;;;5093233;28;20028;-66
2021/11/20 04:00:11;;;;;;;22.75;14.43;;;;;;;;;;5092395;28;20106;-66
2021/11/20 04:02:38;;;;;;;23.08;14.95;;;;;;;;;;5092677;28;20476;-66
2021/11/20 04:05:04;;;;;;;21.45;14.15;;;;;;;;;;5092187;28;20468;-67
2021/11/20 04:07:30;;;;;;;21.95;14.65;;;;;;;;;;5092898;28;20472;-69
2021/11/20 04:09:56;;;;;;;22.42;14.80;;;;;;;;;;5092905;28;20032;-67
2021/11/20 04:12:23;;;;;;;20.77;14.27;;;;;;;;;;5092233;28;20481;-66
2021/11/20 04:14:49;;;;;;;23.70;15.40;;;;;;;;;;5092930;28;20546;-67
2021/11/20 04:17:15;;;;;;;21.55;14.60;;;;;;;;;;5092185;28;20532;-66
2021/11/20 04:19:41;;;;;;;24.63;14.73;;;;;;;;;;5093116;28;20020;-67
2021/11/20 04:22:07;;;;;;;21.98;14.57;;;;;;;;;;5091259;28;20354;-67
2021/11/20 04:24:34;;;;;;;21.95;15.35;;;;;;;;;;5092436;28;20480;-66
2021/11/20 04:27:02;;;;;;;21.30;14.90;;;;;;;;;;5092555;28;20036;-66
2021/11/20 04:29:28;;;;;;;24.38;15.88;;;;;;;;;;5092842;28;20063;-66
2021/11/20 04:31:54;;;;;;;21.73;14.20;;;;;;;;;;5092252;28;20461;-66
2021/11/20 04:34:20;;;;;;;25.35;15.32;;;;;;;;;;5092049;28;20457;-66
2021/11/20 04:36:47;;;;;;;24.60;15.73;;;;;;;;;;5093015;28;20145;-66
2021/11/20 04:39:13;;;;;;;23.40;14.52;;;;;;;;;;5091775;28;20024;-66
2021/11/20 04:41:39;;;;;;;24.17;15.30;;;;;;;;;;5091186;28;20042;-66
2021/11/20 04:44:05;;;;;;;27.50;16.75;;;;;;;;;;5095816;28;20031;-66
2021/11/20 04:46:31;;;;;;;23.83;15.73;;;;;;;;;;5085097;28;20048;-66
2021/11/20 04:48:57;;;;;;;24.48;15.10;;;;;;;;;;5077657;28;20380;-66
2021/11/20 04:51:25;;;;;;;21.75;14.45;;;;;;;;;;5086719;28;20059;-67
2021/11/20 04:53:52;;;;;;;25.17;15.45;;;;;;;;;;5071921;28;20078;-66
2021/11/20 04:56:19;;;;;;;24.88;15.77;;;;;;;;;;5086634;28;20020;-66
2021/11/20 04:58:46;;;;;;;28.27;16.17;;;;;;;;;;5078503;28;20024;-66
2021/11/20 05:01:13;;;;;;;23.00;14.65;;;;;;;;;;5083628;28;20025;-66
2021/11/20 05:03:39;;;;;;;23.48;14.90;;;;;;;;;;5092294;28;20099;-66
2021/11/20 05:06:07;;;;;;;23.83;14.98;;;;;;;;;;5080910;28;20082;-66
2021/11/20 05:08:33;;;;;;;26.38;16.30;;;;;;;;;;5073431;28;20107;-66
2021/11/20 05:10:59;;;;;;;25.15;15.27;;;;;;;;;;5079886;28;20029;-66
2021/11/20 05:13:27;;;;;;;24.33;15.10;;;;;;;;;;5087546;28;20024;-66
2021/11/20 05:15:54;;;;;;;23.48;15.68;;;;;;;;;;5075384;28;20024;-66
2021/11/20 05:18:20;;;;;;;24.25;16.58;;;;;;;;;;5091076;28;20123;-66
2021/11/20 05:20:47;;;;;;;22.33;15.38;;;;;;;;;;5091652;28;20038;-66
2021/11/20 05:23:14;;;;;;;24.67;15.23;;;;;;;;;;5091039;28;20035;-66
2021/11/20 05:25:41;;;;;;;22.88;14.82;;;;;;;;;;5091769;28;20039;-66
2021/11/20 05:28:08;;;;;;;25.60;15.63;;;;;;;;;;5090621;28;20032;-67
2021/11/20 05:30:36;;;;;;;26.30;17.00;;;;;;;;;;5091615;28;20469;-67
2021/11/20 05:33:09;;;;;;;25.70;15.10;;;;;;;;;;5091006;28;20036;-67
2021/11/20 05:35:35;;;;;;;23.48;15.23;;;;;;;;;;5091848;28;20107;-66
2021/11/20 05:38:08;;;;;;;26.20;16.10;;;;;;;;;;5091174;28;20031;-67
2021/11/20 05:40:35;;;;;;;25.27;15.50;;;;;;;;;;5091359;28;20029;-66
2021/11/20 05:43:06;;;;;;;25.50;15.65;;;;;;;;;;5091417;28;20032;-66
2021/11/20 05:45:34;;;;;;;24.73;14.90;;;;;;;;;;5091130;28;20493;-67
2021/11/20 05:48:00;;;;;;;28.73;17.08;;;;;;;;;;5090996;28;20538;-66
2021/11/20 05:50:27;;;;;;;25.42;15.32;;;;;;;;;;5090665;28;20036;-66
2021/11/20 05:52:53;;;;;;;25.13;15.48;;;;;;;;;;5091361;28;20384;-67
2021/11/20 05:55:20;;;;;;;21.20;13.73;;;;;;;;;;5090694;28;20431;-66
2021/11/20 05:57:47;;;;;;;24.40;14.35;;;;;;;;;;5090598;28;20024;-67
2021/11/20 06:00:16;;;;;;;23.65;14.85;;;;;;;;;;5090420;28;20358;-66
2021/11/20 06:02:42;;;;;;;24.10;13.80;;;;;;;;;;5090478;28;20435;-66
2021/11/20 06:05:08;;;;;;;25.08;13.93;;;;;;;;;;5091175;28;20056;-66
2021/11/20 06:07:34;;;;;;;26.55;14.73;;;;;;;;;;5091350;28;20035;-66
2021/11/20 06:10:01;;;;;;;22.75;13.75;;;;;;;;;;5091629;28;20040;-67
2021/11/20 06:12:27;;;;;;;20.23;13.50;;;;;;;;;;5090943;28;20027;-67
2021/11/20 06:14:53;;;;;;;18.88;11.82;;;;;;;;;;5091586;28;20453;-67
2021/11/20 06:17:19;;;;;;;23.67;13.70;;;;;;;;;;5089152;28;20385;-66
2021/11/20 06:19:45;;;;;;;22.85;13.80;;;;;;;;;;5091514;28;20028;-67
2021/11/20 06:22:12;;;;;;;22.05;13.57;;;;;;;;;;5090313;28;20354;-66
2021/11/20 06:24:38;;;;;;;21.40;14.02;;;;;;;;;;5091176;28;20024;-66
2021/11/20 06:27:05;;;;;;;22.48;13.52;;;;;;;;;;5090499;28;20033;-66
2021/11/20 06:29:31;;;;;;;21.85;13.60;;;;;;;;;;5091636;28;20043;-66
2021/11/20 06:31:57;;;;;;;22.25;13.73;;;;;;;;;;5090601;28;20020;-66
2021/11/20 06:34:24;;;;;;;25.40;13.90;;;;;;;;;;5089238;28;20622;-66
2021/11/20 06:36:50;;;;;;;24.42;13.57;;;;;;;;;;5091717;28;20024;-67
2021/11/20 06:39:16;;;;;;;23.45;14.35;;;;;;;;;;5088976;28;20024;-67
2021/11/20 06:41:43;;;;;;;22.67;13.95;;;;;;;;;;5089694;28;20026;-67
2021/11/20 06:44:09;;;;;;;24.77;14.10;;;;;;;;;;5088374;28;20035;-66
2021/11/20 06:46:36;;;;;;;23.83;14.55;;;;;;;;;;5089288;28;20044;-67
2021/11/20 06:49:08;;;;;;;22.38;14.20;;;;;;;;;;5090022;28;20024;-67
2021/11/20 06:51:34;;;;;;;22.25;12.80;;;;;;;;;;5092800;28;20036;-67
2021/11/20 06:54:00;;;;;;;24.38;13.88;;;;;;;;;;5093057;28;20070;-67
2021/11/20 06:56:40;;;;;;;21.40;12.68;;;;;;;;;;5091913;28;20028;-67
2021/11/20 07:01:59;;;;;;;22.15;12.43;;;;;;;;;;5090070;28;20028;-67
2021/11/20 07:04:26;;;;;;;21.58;11.95;;;;;;;;;;5092231;28;20016;-66
2021/11/20 07:06:54;;;;;;;18.92;10.88;;;;;;;;;;5092542;28;20028;-67
2021/11/20 07:09:20;;;;;;;22.42;11.93;;;;;;;;;;5091615;28;20060;-67
2021/11/20 07:11:47;;;;;;;19.45;11.27;;;;;;;;;;5092780;28;20052;-66
2021/11/20 07:14:13;;;;;;;18.90;11.35;;;;;;;;;;5091299;28;20091;-67
2021/11/20 07:16:41;;;;;;;20.65;12.27;;;;;;;;;;5092095;28;20016;-67
2021/11/20 07:19:07;;;;;;;20.35;12.43;;;;;;;;;;5091258;28;20524;-67
2021/11/20 07:21:33;;;;;;;19.65;11.48;;;;;;;;;;5091897;28;20043;-67
2021/11/20 07:24:00;;;;;;;20.10;11.60;;;;;;;;;;5092423;28;20028;-66
2021/11/20 07:26:27;;;;;;;20.45;12.40;;;;;;;;;;5090966;28;20400;-66
2021/11/20 07:28:54;;;;;;;20.58;13.05;;;;;;;;;;5091989;28;20032;-66
2021/11/20 07:31:20;;;;;;;20.58;12.00;;;;;;;;;;5091341;28;20028;-66
2021/11/20 07:33:46;;;;;;;21.13;12.48;;;;;;;;;;5092331;28;20404;-65
2021/11/20 07:36:12;;;;;;;21.75;11.88;;;;;;;;;;5091174;28;20035;-71
2021/11/20 07:38:41;;;;;;;17.20;11.23;;;;;;;;;;5084408;28;20481;-67
2021/11/20 07:41:07;;;;;;;19.45;11.45;;;;;;;;;;5092889;28;20024;-66
2021/11/20 07:43:34;;;;;;;22.83;11.82;;;;;;;;;;5092770;28;20058;-66
2021/11/20 07:46:00;;;;;;;18.38;11.50;;;;;;;;;;5090769;28;20052;-67
2021/11/20 07:48:27;;;;;;;17.17;10.52;;;;;;;;;;5091075;28;20523;-66
2021/11/20 07:50:55;;;;;;;18.67;10.85;;;;;;;;;;5091171;28;20097;-66
2021/11/20 07:53:22;;;;;;;18.45;11.55;;;;;;;;;;5091292;28;20507;-67
2021/11/20 07:55:48;;;;;;;20.48;10.93;;;;;;;;;;5091574;28;20473;-66
2021/11/20 07:58:15;;;;;;;18.85;11.25;;;;;;;;;;5089243;28;20028;-66
2021/11/20 08:00:41;;;;;;;19.08;11.63;;;;;;;;;;5090264;28;20034;-66
2021/11/20 08:03:08;;;;;;;19.88;12.07;;;;;;;;;;5090555;28;20056;-66
2021/11/20 08:05:35;;;;;;;22.05;12.68;;;;;;;;;;5091147;28;20032;-66
2021/11/20 08:08:01;;;;;;;18.77;11.80;;;;;;;;;;5091300;28;20027;-67
2021/11/20 08:10:28;;;;;;;22.45;13.23;;;;;;;;;;5091284;28;20032;-66
2021/11/20 08:12:55;;;;;;;23.40;13.30;;;;;;;;;;5091790;28;20381;-67
2021/11/20 08:15:22;;;;;;;17.98;11.57;;;;;;;;;;5091545;28;20107;-66
2021/11/20 08:17:48;;;;;;;22.15;12.73;;;;;;;;;;5090511;28;20097;-66
2021/11/20 08:20:16;;;;;;;23.75;13.23;;;;;;;;;;5090562;28;20046;-67
2021/11/20 08:22:42;;;;;;;19.20;12.27;;;;;;;;;;5091540;28;20020;-67
2021/11/20 08:25:10;;;;;;;19.92;12.23;;;;;;;;;;5090781;28;20021;-67
2021/11/20 08:27:36;;;;;;;20.45;12.63;;;;;;;;;;5091437;28;20034;-67
2021/11/20 08:30:06;;;;;;;24.42;14.15;;;;;;;;;;5091235;28;20060;-67
2021/11/20 08:32:32;;;;;;;23.40;13.63;;;;;;;;;;5091099;28;20060;-67
2021/11/20 08:34:58;;;;;;;23.98;13.27;;;;;;;;;;5088597;28;20020;-67
2021/11/20 08:37:25;;;;;;;22.08;13.98;;;;;;;;;;5087899;28;20024;-66
2021/11/20 08:39:56;;;;;;;23.48;13.75;;;;;;;;;;5090696;28;20077;-66
2021/11/20 08:42:22;;;;;;;;;;;;;;;;;;5089221;28;20016;-67
2021/11/20 08:44:48;;;;;;;20.58;12.35;;;;;;;;;;5091323;28;19904;-66
2021/11/20 08:47:14;;;;;;;22.10;13.60;;;;;;;;;;5089715;28;20068;-66
2021/11/20 08:49:40;;;;;;;24.50;13.20;;;;;;;;;;5090523;28;20484;-66
2021/11/20 08:52:08;;;;;;;18.85;12.63;;;;;;;;;;5089937;28;20063;-66
2021/11/20 08:54:34;;;;;;;21.80;13.10;;;;;;;;;;5091139;28;20465;-66
2021/11/20 08:57:01;;;;;;;24.55;13.70;;;;;;;;;;5090845;28;20047;-66
2021/11/20 08:59:27;;;;;;;17.70;11.75;;;;;;;;;;5089964;28;20023;-66
2021/11/20 09:02:14;;;;;;;21.20;12.38;;;;;;;;;;5090440;28;20039;-66
2021/11/20 09:04:48;;;;;;;17.65;10.73;;;;;;;;;;5087661;28;20533;-66
2021/11/20 09:07:20;;;;;;;19.20;11.75;;;;;;;;;;5088809;28;20075;-67
2021/11/20 09:09:52;;;;;;;17.05;11.27;;;;;;;;;;5087666;28;20103;-66
2021/11/20 09:12:27;;;;;;;17.33;11.40;;;;;;;;;;5089280;28;20016;-66
2021/11/20 09:14:59;;;;;;;17.77;11.38;;;;;;;;;;5090627;28;20051;-67
2021/11/20 09:17:26;;;;;;;16.85;10.70;;;;;;;;;;5090506;28;20024;-69
2021/11/20 09:19:53;;;;;;;18.77;10.52;;;;;;;;;;5091784;28;20028;-66
2021/11/20 09:22:19;;;;;;;18.52;10.93;;;;;;;;;;5090130;28;20107;-66
2021/11/20 09:24:46;;;;;;;17.13;11.15;;;;;;;;;;5091513;28;20081;-66
2021/11/20 09:27:13;;;;;;;16.75;10.57;;;;;;;;;;5090373;28;20024;-66
2021/11/20 09:29:39;;;;;;;16.05;10.35;;;;;;;;;;5091270;28;20104;-67
2021/11/20 09:32:09;;;;;;;14.23;10.20;;;;;;;;;;5090385;28;20036;-71
2021/11/20 09:34:35;;;;;;;20.65;11.10;;;;;;;;;;5091196;28;20044;-67
2021/11/20 09:37:01;;;;;;;15.90;10.82;;;;;;;;;;5091096;28;20431;-67
2021/11/20 09:39:30;;;;;;;15.10;9.90;;;;;;;;;;5089599;28;20098;-67
2021/11/20 09:41:59;;;;;;;17.33;10.65;;;;;;;;;;5091335;28;20028;-68
2021/11/20 09:44:26;;;;;;;17.10;10.68;;;;;;;;;;5090797;28;20111;-67
2021/11/20 09:46:53;;;;;;;16.88;10.88;;;;;;;;;;5090398;28;20052;-68
2021/11/20 09:49:32;;;;;;;16.13;10.05;;;;;;;;;;5090209;28;20070;-70
2021/11/20 09:51:58;;;;;;;17.48;11.50;;;8.40;99.90;;;;;;5090433;28;20550;-69
2021/11/20 09:54:35;;;;;;;13.93;9.10;;;8.40;99.90;;;;;;5090376;28;20078;-68
2021/11/20 09:57:10;;;;;;;14.27;9.73;;;8.40;99.90;;;;;;5090607;28;20028;-68
2021/11/20 09:59:42;;;;;;;13.88;9.10;;;8.40;99.90;;;;;;5086710;28;20103;-67
2021/11/20 10:02:30;;;;;;;14.57;9.45;;;8.50;99.90;;;;;;5090783;28;20038;-67
2021/11/20 10:04:56;;;;;;;13.23;8.80;;;8.50;99.90;;;;;;5091488;28;20030;-68
2021/11/20 10:07:36;;;;;;;13.27;7.78;;;8.60;99.90;;;;;;5090226;28;20032;-67
2021/11/20 10:10:28;;;;;;;17.30;8.77;;;8.70;99.90;;;;;;5091212;28;20088;-68
2021/11/20 10:13:03;;;;;;;11.95;7.43;;;8.80;99.90;;;;;;5091180;28;20036;-67
2021/11/20 10:15:32;;;;;;;12.90;7.28;;;8.80;99.90;;;;;;5090527;28;20318;-67
2021/11/20 10:18:29;;;;;;;12.10;7.55;;;8.70;99.90;;;;;;5091079;28;20028;-67
2021/11/20 10:21:18;;;;;;;12.48;8.10;;;8.70;99.90;;;;;;5090251;28;20162;-67
2021/11/20 10:24:05;;;;;;;9.68;6.80;;;8.70;99.90;;;;;;5065348;28;20424;-67
2021/11/20 10:26:46;;;;;;;8.65;5.40;;;8.60;99.90;;;;;;5073473;28;20896;-67
2021/11/20 10:29:52;;;;;;;9.20;5.90;;;8.60;99.90;;;;;;5073913;28;20440;-73
2021/11/20 10:32:32;;;;;;;8.75;5.43;;;8.50;99.90;;;;;;5090057;28;20028;-68
2021/11/20 10:35:06;;;;;;;9.68;5.38;;;8.50;99.90;;;;;;5094809;28;20050;-72
2021/11/20 10:38:11;;;;;;;5.85;3.75;;;8.50;99.90;;;;;;5094090;28;20024;-73
2021/11/20 10:40:48;;;;;;;8.98;5.10;;;8.40;99.90;;;;;;5094610;28;20043;-66
2021/11/20 10:43:17;;;;;;;9.05;5.15;;;8.40;99.90;;;;;;5094237;28;20036;-65
2021/11/20 10:46:10;;;;;;;7.85;4.90;;;8.30;99.90;;;;;;5094129;28;20048;-68
2021/11/20 10:48:50;;;;;;;8.48;4.97;;;8.30;99.90;;;;;;5099616;28;20568;-68
2021/11/20 10:51:22;;;;;;;9.18;5.75;;;8.30;99.90;;;;;;5101796;28;20032;-67
2021/11/20 10:54:15;;;;;;;10.63;5.95;;;8.20;99.90;;;;;;5093368;28;20099;-68
2021/11/20 10:57:03;;;;;;;9.23;6.13;;;8.20;99.90;;;;;;5089025;28;20035;-67
2021/11/20 10:59:56;;;;;;;10.13;5.18;;;8.20;99.90;;;;;;5092177;28;20167;-80
2021/11/20 11:02:34;;;;;;;10.02;5.60;;;8.30;99.90;;;;;;5096383;28;20028;-76
2021/11/20 11:05:33;;;;;;;9.82;5.90;;;8.30;99.90;;;;;;5099544;28;20032;-72
2021/11/20 11:08:21;;;;;;;10.20;6.55;;;8.40;99.90;;;;;;5095664;28;20107;-75
2021/11/20 11:10:52;;;;;;;11.75;6.20;;;8.40;99.90;;;;;;5103623;28;20028;-67
2021/11/20 11:13:48;;;;;;;10.88;6.03;;;8.40;99.90;;;;;;5092849;28;20462;-73
2021/11/20 11:16:38;;;;;;;10.70;7.07;;;8.40;99.90;;;;;;5076542;28;20048;-72
2021/11/20 11:19:13;;;;;;;10.05;5.88;;;8.40;99.90;;;;;;5089671;28;20452;-72
2021/11/20 11:21:57;;;;;;;8.57;6.20;;;8.40;99.90;;;;;;5088217;28;20044;-70
2021/11/20 11:24:25;;;;;;;9.30;6.70;;;8.40;99.90;;;;;;5072733;28;20037;-71
2021/11/20 11:27:16;;;;;;;11.13;6.88;;;8.40;99.90;;;;;;5090156;28;20032;-70
2021/11/20 11:30:08;;;;;;;10.18;6.60;;;8.50;99.90;;;;;;5074535;28;20107;-70
2021/11/20 11:32:35;;;;;;;9.57;6.68;;;8.50;99.90;;;;;;5090170;28;20385;-72
2021/11/20 11:35:14;;;;;;;9.85;6.28;;;8.50;99.90;;;;;;5093800;28;20036;-75
2021/11/20 11:38:08;;;;;;;12.20;7.05;;;8.50;99.90;;;;;;5091131;28;20488;-76
2021/11/20 11:40:53;;;;;;;7.03;5.15;;;8.50;99.90;;;;;;5072513;28;20102;-73
2021/11/20 11:43:25;;;;;;;6.50;4.28;;;8.50;99.90;;;;;;5076006;28;20038;-75
2021/11/20 11:46:06;;;;;;;7.22;4.80;;;8.40;99.90;;;;;;5093009;28;20052;-75
2021/11/20 11:49:16;;;;;;;6.97;4.80;;;8.40;99.90;;;;;;5089175;28;20793;-75
2021/11/20 11:52:17;;;;;;;6.45;4.50;;;8.50;99.90;;;;;;5093105;28;20062;-73
2021/11/20 11:54:44;;;;;;;;;;;8.50;99.90;;;;;;5082368;28;20036;-74
2021/11/20 11:57:14;;;;;;;8.13;4.22;;;8.50;99.90;;;;;;5093223;28;19931;-75
2021/11/20 11:59:57;;;;;;;8.60;5.13;;;8.60;99.90;;;;;;5092630;28;20044;-72
2021/11/20 12:02:26;;;;;;;9.80;5.55;;;8.60;99.90;;;;;;5091902;28;20075;-72
2021/11/20 12:04:56;;;;;;;8.45;5.35;;;8.70;99.90;;;;;;5092565;28;20024;-72
2021/11/20 12:07:24;;;;;;;7.10;4.88;;;8.60;99.90;;;;;;5090821;28;20104;-71
2021/11/20 12:10:26;;;;;;;8.27;5.10;;;8.70;99.90;;;;;;5091731;28;20042;-72
2021/11/20 12:12:52;;;;;;;6.25;4.47;;;8.70;99.90;;;;;;5010272;28;20521;-74
2021/11/20 12:15:17;;;;;;;10.50;5.70;;;8.70;99.90;;;;;;5058676;28;20040;-73
2021/11/20 12:18:07;;;;;;;8.77;5.70;;;8.70;99.90;;;;;;5072722;28;20488;-71
2021/11/20 12:21:37;;;;;;;8.95;5.10;;;8.70;99.90;;;;;;5083349;28;20028;-71
2021/11/20 12:24:40;;;;;;;7.72;4.72;;;8.70;99.90;;;;;;5010140;28;20030;-71
2021/11/20 12:27:39;;;;;;;10.50;5.97;;;8.70;99.90;;;;;;5009947;28;20034;-70
2021/11/20 12:30:10;;;;;;;9.45;6.03;;;8.80;99.90;;;;;;5010301;28;20068;-71
2021/11/20 12:33:15;;;;;;;8.38;5.28;;;8.80;99.90;;;;;;5009154;28;20037;-71
2021/11/20 12:35:49;;;;;;;9.68;5.53;;;8.70;99.90;;;;;;5010258;28;20045;-71
2021/11/20 12:38:26;;;;;;;9.48;5.28;;;8.70;99.90;;;;;;5015055;28;20578;-70
2021/11/20 12:41:21;;;;;;;11.63;7.03;;;8.70;99.90;;;;;;5012672;28;20041;-70
2021/11/20 12:44:12;;;;;;;13.63;6.97;;;8.70;99.90;;;;;;5009667;28;20034;-71
2021/11/20 12:46:49;;;;;;;11.13;6.80;;;8.70;99.90;;;;;;5008061;28;20054;-71
2021/11/20 12:49:38;;;;;;;12.15;6.93;;;8.60;99.90;;;;;;5009290;28;20045;-69
2021/11/20 12:52:23;;;;;;;11.75;7.22;;;8.70;99.90;;;;;;5009819;28;20077;-73
2021/11/20 12:55:04;;;;;;;10.07;6.47;;;8.70;99.90;;;;;;5049695;28;20453;-75
2021/11/20 12:57:41;;;;;;;9.82;6.20;;;8.60;99.90;;;;;;5090924;28;20047;-73
2021/11/20 13:00:07;;;;;;;13.88;7.00;;;8.60;99.90;;;;;;5090593;28;20036;-73
2021/11/20 13:02:39;;;;;;;10.45;6.20;;;8.60;99.90;;;;;;5091150;28;20086;-67
2021/11/20 13:05:24;;;;;;;13.50;7.72;;;8.60;99.90;;;;;;5091804;28;20373;-73
2021/11/20 13:07:52;;;;;;;10.45;6.55;;;8.60;99.90;;;;;;5091398;28;20034;-72
2021/11/20 13:10:39;;;;;;;12.07;7.05;;;8.60;99.90;;;;;;5090265;28;20040;-68
2021/11/20 13:13:42;;;;;;;12.38;7.32;;;8.70;99.90;;;;;;5090601;28;20099;-76
2021/11/20 13:16:15;;;;;;;15.02;7.70;;;8.70;99.90;;;;;;5088833;28;20046;-71
2021/11/20 13:18:58;;;;;;;13.05;7.28;;;8.70;99.90;;;;;;5090210;28;20043;-70
2021/11/20 13:21:29;;;;;;;9.93;6.28;;;8.70;99.90;;;;;;5088978;28;20088;-71
2021/11/20 13:24:11;;;;;;;11.25;6.43;;;8.60;99.90;;;;;;5090373;28;20538;-71
2021/11/20 13:27:11;;;;;;;12.23;7.60;;;8.70;99.90;;;;;;5090126;28;20697;-68
2021/11/20 13:29:45;;;;;;;11.93;6.95;;;8.70;99.90;;;;;;5088291;28;20063;-68
2021/11/20 13:32:15;;;;;;;14.43;6.95;;;8.70;99.90;;;;;;5089750;28;20024;-71
2021/11/20 13:34:56;;;;;;;13.73;7.93;;;8.80;99.90;;;;;;5087800;28;20106;-68
2021/11/20 13:37:22;;;;;;;12.38;7.65;;;8.80;99.90;;;;;;5089280;28;20028;-68
2021/11/20 13:39:47;;;;;;;12.30;7.38;;;8.70;99.90;;;;;;5090086;28;20418;-68
2021/11/20 13:42:18;;;;;;;13.02;8.43;;;8.70;99.90;;;;;;5089829;28;20020;-73
2021/11/20 13:44:43;;;;;;;;;;;8.70;99.90;;;;;;5104339;28;20479;-72
2021/11/20 13:47:09;;;;;;;11.60;6.90;;;8.80;99.90;;;;;;5090612;28;20014;-70
2021/11/20 13:49:36;;;;;;;13.02;7.45;;;8.70;99.90;;;;;;5090660;28;20243;-71
2021/11/20 13:52:18;;;;;;;12.07;7.20;;;8.60;99.90;;;;;;5090862;28;20528;-72
2021/11/20 13:54:56;;;;;;;12.80;7.18;;;8.60;99.90;;;;;;5076419;28;20028;-77
2021/11/20 13:57:22;;;;;;;12.63;7.47;;;8.60;99.90;;;;;;5089996;28;20248;-73
2021/11/20 13:59:48;;;;;;;13.02;8.25;;;8.60;99.90;;;;;;5094340;28;20028;-67
2021/11/20 14:02:19;;;;;;;13.10;7.97;;;8.60;99.90;;;;;;5093719;28;20034;-68
2021/11/20 14:04:45;;;;;;;16.02;7.47;;;8.50;99.90;;;;;;5092807;28;20110;-68
2021/11/20 14:07:14;;;;;;;13.77;8.13;;;8.40;99.90;;;;;;5093948;28;20441;-68
2021/11/20 14:09:51;;;;;;;14.38;8.30;;;8.40;99.90;;;;;;5093115;28;20465;-66
2021/11/20 14:12:26;;;;;;;12.52;7.70;;;8.30;99.90;;;;;;5090984;28;20020;-67
2021/11/20 14:15:03;;;;;;;13.68;8.68;;;8.20;99.90;;;;;;5094135;28;20039;-66
2021/11/20 14:17:33;;;;;;;23.40;14.75;;;8.10;99.90;;;;;;5093377;28;20024;-67
2021/11/20 14:20:06;;;;;;;;;;;8.00;99.90;;;;;;5092486;28;20027;-67
2021/11/20 14:22:40;;;;;;;14.10;8.38;;;8.00;99.90;;;;;;5096589;28;19912;-67